createdAt,value
2023-02-28T00:01:55.936Z,1.80
2023-02-28T00:04:41.752Z,2.03
2023-02-28T00:07:28.972Z,2.00
2023-02-28T00:10:23.857Z,1.63
2023-02-28T00:13:10.391Z,1.90
2023-02-28T00:16:04.630Z,1.95
2023-02-28T00:18:51.693Z,1.90
2023-02-28T00:21:37.986Z,1.90
2023-02-28T00:24:24.136Z,1.77
2023-02-28T00:27:10.438Z,2.08
2023-02-28T00:29:56.953Z,1.65
2023-02-28T00:32:42.981Z,1.90
2023-02-28T00:35:29.330Z,1.88
2023-02-28T00:38:16.637Z,2.00
2023-02-28T00:43:51.744Z,1.75
2023-02-28T00:46:37.664Z,2.10
2023-02-28T00:49:24.300Z,1.98
2023-02-28T00:52:11.043Z,2.00
2023-02-28T00:54:57.151Z,2.20
2023-02-28T00:57:43.118Z,1.73
2023-02-28T01:00:29.483Z,1.90
2023-02-28T01:03:20.011Z,2.25
2023-02-28T01:06:06.276Z,1.98
2023-02-28T01:08:52.671Z,1.67
2023-02-28T01:11:41.648Z,1.98
2023-02-28T01:14:27.621Z,1.75
2023-02-28T01:17:13.439Z,1.95
2023-02-28T01:19:59.529Z,2.28
2023-02-28T01:22:45.671Z,2.30
2023-02-28T01:25:32.004Z,1.85
2023-02-28T01:28:18.104Z,2.03
2023-02-28T01:31:04.769Z,1.88
2023-02-28T01:33:51.105Z,1.88
2023-02-28T01:36:37.444Z,2.10
2023-02-28T01:39:23.766Z,1.90
2023-02-28T01:42:10.825Z,2.13
2023-02-28T01:45:05.186Z,2.00
2023-02-28T01:47:55.524Z,1.73
2023-02-28T01:50:45.799Z,1.85
2023-02-28T01:53:38.183Z,1.75
2023-02-28T01:56:31.571Z,2.00
2023-02-28T01:59:27.919Z,1.85
2023-02-28T02:02:16.604Z,1.80
2023-02-28T02:05:06.846Z,2.00
2023-02-28T02:07:57.643Z,1.73
2023-02-28T02:10:48.885Z,2.10
2023-02-28T02:14:02.612Z,2.20
2023-02-28T02:17:07.631Z,1.85
2023-02-28T02:20:08.870Z,2.40
2023-02-28T02:23:40.325Z,2.20
2023-02-28T02:26:51.581Z,1.80
2023-02-28T02:29:39.818Z,2.25
2023-02-28T02:32:38.174Z,2.17
2023-02-28T02:35:47.411Z,1.95
2023-02-28T02:38:43.527Z,2.00
2023-02-28T02:41:55.298Z,1.88
2023-02-28T02:44:51.669Z,2.00
2023-02-28T02:47:39.371Z,1.80
2023-02-28T02:50:35.925Z,1.98
2023-02-28T02:53:29.161Z,1.98
2023-02-28T02:56:16.841Z,2.00
2023-02-28T02:59:06.851Z,2.00
2023-02-28T03:01:58.188Z,2.08
2023-02-28T03:04:49.540Z,1.88
2023-02-28T03:07:35.431Z,2.38
2023-02-28T03:10:32.823Z,2.05
2023-02-28T03:13:27.787Z,2.08
2023-02-28T03:16:35.579Z,2.00
2023-02-28T03:19:46.167Z,2.08
2023-02-28T03:22:52.183Z,1.95
2023-02-28T03:25:55.563Z,2.17
2023-02-28T03:28:50.589Z,2.20
2023-02-28T03:32:15.704Z,2.13
2023-02-28T03:35:08.781Z,2.42
2023-02-28T03:38:03.928Z,2.20
2023-02-28T03:40:59.259Z,2.70
2023-02-28T03:43:59.276Z,2.30
2023-02-28T03:47:03.981Z,2.78
2023-02-28T03:50:19.513Z,2.22
2023-02-28T03:53:14.814Z,2.38
2023-02-28T03:56:03.346Z,2.30
2023-02-28T03:59:01.582Z,2.95
2023-02-28T04:01:50.036Z,2.00
2023-02-28T04:04:36.125Z,2.42
2023-02-28T04:07:22.491Z,2.10
2023-02-28T04:10:09.919Z,2.47
2023-02-28T04:12:56.049Z,1.73
2023-02-28T04:15:42.533Z,2.50
2023-02-28T04:18:28.457Z,2.67
2023-02-28T04:21:14.963Z,2.60
2023-02-28T04:24:01.757Z,2.72
2023-02-28T04:26:51.050Z,2.65
2023-02-28T04:29:37.103Z,2.80
2023-02-28T04:32:23.188Z,2.60
2023-02-28T04:35:12.225Z,2.50
2023-02-28T04:37:59.079Z,16.67
2023-02-28T04:40:45.314Z,3.47
2023-02-28T04:43:31.959Z,3.45
2023-02-28T04:46:19.328Z,2.88
2023-02-28T04:49:05.333Z,2.65
2023-02-28T04:51:51.400Z,2.83
2023-02-28T04:54:39.813Z,2.65
2023-02-28T04:57:25.666Z,2.60
2023-02-28T05:00:12.607Z,2.92
2023-02-28T05:02:58.576Z,2.97
2023-02-28T05:05:44.708Z,2.72
2023-02-28T05:08:31.289Z,3.08
2023-02-28T05:11:30.686Z,2.58
2023-02-28T05:14:17.235Z,2.78
2023-02-28T05:17:03.177Z,3.30
2023-02-28T05:19:49.012Z,3.90
2023-02-28T05:22:34.920Z,3.15
2023-02-28T05:25:23.599Z,3.30
2023-02-28T05:28:09.946Z,2.90
2023-02-28T05:30:56.023Z,3.13
2023-02-28T05:33:42.142Z,3.13
2023-02-28T05:36:28.329Z,3.25
2023-02-28T05:39:14.681Z,3.58
2023-02-28T05:42:00.704Z,2.95
2023-02-28T05:44:47.684Z,2.90
2023-02-28T05:47:34.033Z,3.42
2023-02-28T05:50:20.485Z,5.35
2023-02-28T05:53:06.821Z,4.13
2023-02-28T05:55:52.899Z,3.17
2023-02-28T05:58:39.111Z,2.92
2023-02-28T06:01:40.087Z,3.05
2023-02-28T06:04:31.845Z,2.97
2023-02-28T06:07:18.746Z,3.50
2023-02-28T06:10:05.671Z,3.53
2023-02-28T06:12:51.575Z,2.88
2023-02-28T06:15:37.521Z,4.15
2023-02-28T06:18:23.553Z,4.05
2023-02-28T06:21:09.933Z,3.80
2023-02-28T06:23:57.222Z,3.42
2023-02-28T06:26:43.491Z,3.15
2023-02-28T06:29:29.762Z,3.20
2023-02-28T06:32:16.108Z,3.17
2023-02-28T06:35:02.105Z,3.80
2023-02-28T06:37:48.264Z,3.22
2023-02-28T06:40:36.719Z,3.22
2023-02-28T06:43:23.745Z,3.45
2023-02-28T06:46:14.675Z,3.60
2023-02-28T06:49:00.716Z,3.28
2023-02-28T06:51:46.710Z,4.25
2023-02-28T06:54:32.784Z,3.22
2023-02-28T06:57:18.650Z,3.80
2023-02-28T07:00:08.668Z,3.08
2023-02-28T07:02:56.106Z,3.85
2023-02-28T07:05:42.288Z,3.45
2023-02-28T07:08:28.766Z,3.72
2023-02-28T07:11:14.747Z,2.85
2023-02-28T07:14:00.683Z,4.03
2023-02-28T07:16:46.822Z,3.85
2023-02-28T07:19:33.031Z,3.70
2023-02-28T07:22:19.041Z,4.43
2023-02-28T07:25:06.086Z,3.90
2023-02-28T07:27:55.054Z,4.13
2023-02-28T07:30:41.949Z,3.97
2023-02-28T07:33:27.985Z,3.90
2023-02-28T07:36:18.098Z,3.80
2023-02-28T07:39:05.253Z,5.07
2023-02-28T07:41:51.526Z,4.85
2023-02-28T07:44:41.308Z,4.47
2023-02-28T07:47:27.441Z,5.10
2023-02-28T07:50:16.042Z,3.90
2023-02-28T07:53:02.442Z,4.35
2023-02-28T07:55:49.032Z,5.32
2023-02-28T07:58:35.381Z,4.45
2023-02-28T08:01:21.346Z,4.15
2023-02-28T08:04:07.775Z,4.30
2023-02-28T08:06:54.346Z,3.85
2023-02-28T08:09:41.442Z,4.75
2023-02-28T08:12:27.577Z,4.47
2023-02-28T08:15:13.725Z,4.40
2023-02-28T08:17:59.620Z,4.60
2023-02-28T08:20:45.562Z,5.35
2023-02-28T08:23:31.559Z,4.47
2023-02-28T08:26:18.868Z,4.57
2023-02-28T08:31:50.702Z,4.20
2023-02-28T08:34:39.487Z,3.88
2023-02-28T08:37:26.102Z,4.05
2023-02-28T08:40:14.721Z,4.28
2023-02-28T08:43:01.272Z,4.75
2023-02-28T08:45:47.286Z,4.55
2023-02-28T08:48:35.924Z,5.00
2023-02-28T08:51:27.410Z,4.55
2023-02-28T08:54:15.605Z,4.45
2023-02-28T08:57:01.731Z,4.90
2023-02-28T08:59:47.966Z,5.10
2023-02-28T09:02:34.418Z,4.82
2023-02-28T09:05:20.566Z,4.35
2023-02-28T09:08:06.565Z,4.97
2023-02-28T09:10:53.280Z,5.05
2023-02-28T09:13:39.819Z,5.03
2023-02-28T09:16:26.147Z,4.57
2023-02-28T09:19:13.313Z,5.07
2023-02-28T09:24:45.861Z,3.80
2023-02-28T09:27:32.189Z,4.50
2023-02-28T09:30:18.449Z,4.80
2023-02-28T09:33:04.749Z,4.85
2023-02-28T09:35:52.015Z,4.80
2023-02-28T09:38:38.497Z,4.53
2023-02-28T09:41:29.174Z,4.72
2023-02-28T09:44:21.768Z,4.90
2023-02-28T09:47:39.287Z,4.85
2023-02-28T09:50:53.464Z,4.80
2023-02-28T09:53:40.939Z,4.10
2023-02-28T09:56:39.857Z,3.80
2023-02-28T09:59:53.911Z,4.85
2023-02-28T10:03:01.296Z,4.30
2023-02-28T10:06:18.287Z,4.53
2023-02-28T10:12:06.251Z,4.35
2023-02-28T10:14:55.035Z,4.07
2023-02-28T10:17:55.165Z,4.63
2023-02-28T10:20:47.753Z,4.85
2023-02-28T10:23:36.968Z,5.30
2023-02-28T10:26:27.460Z,5.07
2023-02-28T10:29:13.756Z,4.63
2023-02-28T10:32:03.751Z,5.00
2023-02-28T10:35:01.370Z,4.82
2023-02-28T10:37:54.767Z,5.65
2023-02-28T10:40:40.998Z,5.20
2023-02-28T10:43:27.148Z,5.20
2023-02-28T10:46:26.405Z,5.05
2023-02-28T10:49:23.306Z,5.45
2023-02-28T10:52:10.918Z,6.15
2023-02-28T10:55:26.044Z,5.28
2023-02-28T10:58:26.138Z,5.53
2023-02-28T11:01:21.913Z,5.75
2023-02-28T11:04:33.441Z,5.95
2023-02-28T11:07:24.327Z,5.22
2023-02-28T11:10:20.912Z,5.65
2023-02-28T11:13:06.992Z,5.68
2023-02-28T11:16:06.527Z,5.75
2023-02-28T11:18:58.374Z,5.93
2023-02-28T11:21:54.163Z,5.10
2023-02-28T11:24:46.903Z,5.60
2023-02-28T11:27:34.713Z,5.28
2023-02-28T11:30:33.302Z,4.90
2023-02-28T11:33:25.006Z,5.40
2023-02-28T11:36:18.022Z,5.05
2023-02-28T11:39:13.344Z,5.43
2023-02-28T11:42:33.268Z,6.07
2023-02-28T11:45:43.894Z,5.95
2023-02-28T11:48:51.104Z,5.47
2023-02-28T11:51:47.384Z,6.00
2023-02-28T11:54:50.113Z,5.70
2023-02-28T11:57:39.043Z,5.57
2023-02-28T12:00:39.881Z,5.80
2023-02-28T12:03:44.237Z,6.15
2023-02-28T12:06:48.520Z,5.68
2023-02-28T12:09:54.963Z,6.22
2023-02-28T12:13:02.342Z,6.40
2023-02-28T12:16:16.551Z,6.20
2023-02-28T12:19:18.693Z,5.88
2023-02-28T12:22:28.264Z,6.43
2023-02-28T12:25:14.348Z,5.90
2023-02-28T12:28:01.262Z,6.30
2023-02-28T12:31:07.171Z,7.10
2023-02-28T12:34:00.689Z,6.07
2023-02-28T12:36:48.629Z,6.13
2023-02-28T12:39:50.607Z,6.20
2023-02-28T12:42:47.236Z,6.18
2023-02-28T12:46:02.085Z,5.95
2023-02-28T12:48:53.479Z,5.63
2023-02-28T12:51:40.343Z,5.90
2023-02-28T12:54:52.117Z,5.75
2023-02-28T12:57:41.534Z,5.70
2023-02-28T13:00:37.387Z,6.22
2023-02-28T13:04:12.504Z,6.25
2023-02-28T13:07:12.536Z,5.93
2023-02-28T13:10:01.719Z,6.65
2023-02-28T13:12:53.249Z,6.32
2023-02-28T13:15:41.626Z,6.03
2023-02-28T13:18:46.744Z,6.18
2023-02-28T13:21:44.434Z,6.32
2023-02-28T13:25:02.347Z,6.47
2023-02-28T13:28:08.991Z,6.10
2023-02-28T13:31:02.036Z,6.03
2023-02-28T13:33:50.928Z,5.80
2023-02-28T13:36:37.801Z,5.65
2023-02-28T13:39:36.637Z,6.22
2023-02-28T13:42:32.202Z,6.05
2023-02-28T13:45:22.960Z,5.57
2023-02-28T13:48:27.874Z,5.88
2023-02-28T13:51:36.084Z,6.30
2023-02-28T13:54:56.959Z,5.70
2023-02-28T13:58:21.213Z,6.20
2023-02-28T14:01:43.016Z,5.32
2023-02-28T14:04:45.101Z,5.32
2023-02-28T14:07:38.987Z,5.63
2023-02-28T14:10:29.649Z,5.78
2023-02-28T14:13:48.403Z,5.93
2023-02-28T14:16:48.113Z,5.57
2023-02-28T14:19:37.849Z,5.55
2023-02-28T14:22:48.992Z,5.80
2023-02-28T14:25:40.757Z,5.13
2023-02-28T14:28:43.306Z,6.28
2023-02-28T14:31:42.237Z,5.85
2023-02-28T14:34:54.016Z,6.40
2023-02-28T14:37:43.247Z,6.00
2023-02-28T14:40:36.085Z,5.75
2023-02-28T14:43:25.795Z,5.82
2023-02-28T14:46:14.623Z,5.60
2023-02-28T14:49:00.845Z,5.70
2023-02-28T14:51:48.371Z,6.03
2023-02-28T14:54:34.715Z,5.43
2023-02-28T14:57:33.230Z,5.75
2023-02-28T15:00:25.275Z,5.72
2023-02-28T15:03:35.816Z,5.35
2023-02-28T15:06:23.996Z,5.30
2023-02-28T15:09:19.608Z,5.72
2023-02-28T15:12:06.374Z,5.47
2023-02-28T15:14:55.383Z,5.38
2023-02-28T15:17:43.725Z,5.28
2023-02-28T15:20:30.163Z,5.07
2023-02-28T15:23:17.193Z,5.15
2023-02-28T15:26:04.002Z,5.32
2023-02-28T15:28:59.941Z,5.22
2023-02-28T15:32:10.820Z,4.72
2023-02-28T15:37:53.320Z,5.00
2023-02-28T15:40:43.650Z,5.30
2023-02-28T15:43:33.156Z,4.75
2023-02-28T15:46:20.901Z,5.03
2023-02-28T15:49:20.086Z,4.68
2023-02-28T15:52:06.439Z,5.35
2023-02-28T15:54:53.062Z,5.18
2023-02-28T15:57:40.823Z,5.20
2023-02-28T16:00:29.401Z,4.97
2023-02-28T16:03:45.677Z,4.97
2023-02-28T16:09:34.330Z,4.50
2023-02-28T16:12:25.608Z,4.82
2023-02-28T16:15:29.797Z,4.45
2023-02-28T16:18:15.806Z,4.90
2023-02-28T16:21:01.693Z,5.25
2023-02-28T16:23:47.620Z,5.00
2023-02-28T16:26:35.164Z,5.15
2023-02-28T16:29:33.966Z,5.35
2023-02-28T16:32:20.376Z,5.10
2023-02-28T16:35:10.671Z,4.95
2023-02-28T16:37:56.662Z,4.28
2023-02-28T16:40:42.916Z,4.88
2023-02-28T16:43:29.342Z,5.00
2023-02-28T16:46:16.517Z,4.70
2023-02-28T16:49:03.342Z,4.82
2023-02-28T16:51:49.361Z,4.82
2023-02-28T16:54:35.181Z,4.70
2023-02-28T16:57:24.139Z,5.00
2023-02-28T17:00:14.037Z,4.97
2023-02-28T17:03:00.426Z,5.07
2023-02-28T17:05:46.881Z,4.70
2023-02-28T17:08:33.311Z,4.82
2023-02-28T17:11:20.039Z,5.00
2023-02-28T17:14:06.324Z,4.85
2023-02-28T17:16:52.659Z,4.60
2023-02-28T17:19:39.258Z,5.45
2023-02-28T17:22:26.914Z,4.68
2023-02-28T17:25:12.956Z,4.85
2023-02-28T17:27:59.037Z,4.85
2023-02-28T17:30:48.124Z,5.20
2023-02-28T17:33:34.526Z,5.38
2023-02-28T17:36:26.894Z,4.68
2023-02-28T17:39:15.145Z,4.90
2023-02-28T17:42:01.182Z,5.68
2023-02-28T17:44:47.193Z,5.63
2023-02-28T17:47:33.092Z,5.20
2023-02-28T17:50:22.057Z,5.25
2023-02-28T17:53:08.096Z,4.95
2023-02-28T17:55:54.208Z,5.07
2023-02-28T17:58:40.251Z,5.15
2023-02-28T18:01:27.064Z,4.72
2023-02-28T18:07:01.052Z,5.38
2023-02-28T18:09:47.307Z,4.90
2023-02-28T18:12:33.057Z,4.95
2023-02-28T18:15:21.261Z,4.70
2023-02-28T18:18:07.743Z,5.45
2023-02-28T18:20:54.522Z,5.13
2023-02-28T18:23:48.073Z,5.20
2023-02-28T18:26:33.911Z,5.10
2023-02-28T18:29:25.152Z,5.18
2023-02-28T18:32:11.376Z,4.75
2023-02-28T18:34:58.000Z,5.40
2023-02-28T18:37:44.293Z,5.72
2023-02-28T18:40:30.278Z,5.60
2023-02-28T18:43:16.101Z,5.43
2023-02-28T18:46:13.173Z,5.65
2023-02-28T18:49:00.282Z,5.57
2023-02-28T18:51:46.882Z,5.03
2023-02-28T18:54:33.135Z,5.13
2023-02-28T18:57:18.992Z,5.35
2023-02-28T19:00:05.568Z,4.90
2023-02-28T19:05:38.471Z,5.70
2023-02-28T19:08:24.976Z,5.82
2023-02-28T19:11:15.969Z,5.85
2023-02-28T19:14:02.672Z,5.80
2023-02-28T19:16:50.225Z,5.82
2023-02-28T19:19:36.570Z,5.75
2023-02-28T19:22:22.768Z,5.90
2023-02-28T19:25:09.135Z,5.60
2023-02-28T19:27:56.540Z,5.55
2023-02-28T19:31:16.518Z,5.75
2023-02-28T19:34:02.932Z,5.75
2023-02-28T19:36:49.643Z,5.72
2023-02-28T19:39:41.517Z,6.15
2023-02-28T19:42:33.033Z,5.72
2023-02-28T19:45:19.342Z,5.90
2023-02-28T19:48:05.943Z,6.93
2023-02-28T19:51:03.897Z,5.88
2023-02-28T19:53:50.368Z,5.80
2023-02-28T19:56:36.264Z,6.05
2023-02-28T19:59:35.986Z,5.53
2023-02-28T20:02:24.706Z,6.07
2023-02-28T20:05:11.068Z,5.47
2023-02-28T20:07:57.178Z,6.07
2023-02-28T20:10:43.240Z,5.82
2023-02-28T20:13:29.197Z,5.75
2023-02-28T20:16:17.023Z,5.63
2023-02-28T20:19:03.139Z,5.68
2023-02-28T20:21:49.355Z,5.47
2023-02-28T20:24:35.707Z,5.55
2023-02-28T20:27:21.565Z,5.50
2023-02-28T20:30:08.354Z,6.07
2023-02-28T20:35:40.701Z,6.13
2023-02-28T20:38:28.075Z,5.78
2023-02-28T20:44:02.281Z,5.38
2023-02-28T20:46:48.468Z,5.53
2023-02-28T20:49:34.321Z,5.50
2023-02-28T20:52:20.372Z,5.40
2023-02-28T20:55:07.236Z,5.93
2023-02-28T21:00:39.997Z,5.75
2023-02-28T21:03:26.018Z,5.57
2023-02-28T21:06:12.711Z,7.18
2023-02-28T21:11:45.936Z,5.63
2023-02-28T21:14:32.244Z,5.50
2023-02-28T21:17:18.642Z,5.90
2023-02-28T21:20:05.043Z,5.95
2023-02-28T21:22:52.890Z,5.50
2023-02-28T21:25:39.300Z,5.90
2023-02-28T21:28:25.311Z,5.82
2023-02-28T21:31:16.582Z,6.15
2023-02-28T21:34:05.380Z,5.28
2023-02-28T21:36:51.309Z,5.63
2023-02-28T21:39:37.303Z,5.43
2023-02-28T21:42:23.276Z,5.70
2023-02-28T21:45:09.536Z,5.88
2023-02-28T21:47:55.550Z,5.82
2023-02-28T21:50:42.008Z,5.68
2023-02-28T21:53:31.510Z,6.47
2023-02-28T21:56:23.404Z,5.30
2023-02-28T21:59:10.532Z,5.88
2023-02-28T22:01:56.802Z,5.75
2023-02-28T22:04:42.814Z,6.63
2023-02-28T22:07:29.718Z,5.63
2023-02-28T22:10:15.707Z,5.72
2023-02-28T22:13:03.611Z,6.10
2023-02-28T22:15:49.884Z,6.43
2023-02-28T22:18:36.793Z,6.10
2023-02-28T22:24:10.368Z,5.60
2023-02-28T22:26:56.253Z,5.75
2023-02-28T22:29:42.317Z,5.82
2023-02-28T22:32:28.412Z,6.13
2023-02-28T22:35:14.180Z,6.07
2023-02-28T22:38:00.161Z,5.80
2023-02-28T22:40:46.523Z,5.88
2023-02-28T22:43:33.475Z,5.80
2023-02-28T22:46:19.753Z,6.38
2023-02-28T22:49:06.192Z,5.68
2023-02-28T22:51:52.478Z,5.53
2023-02-28T22:54:38.406Z,5.85
2023-02-28T22:57:24.386Z,5.85
2023-02-28T23:00:15.472Z,5.60
2023-02-28T23:03:01.537Z,5.72
2023-02-28T23:05:47.790Z,5.82
2023-02-28T23:08:34.043Z,6.35
2023-02-28T23:11:25.389Z,5.43
2023-02-28T23:14:13.298Z,5.70
2023-02-28T23:16:59.569Z,6.07
2023-02-28T23:19:45.349Z,5.90
2023-02-28T23:22:31.375Z,5.85
2023-02-28T23:25:21.391Z,5.32
2023-02-28T23:28:10.093Z,5.50
2023-02-28T23:30:56.093Z,5.75
2023-02-28T23:33:42.169Z,6.40
2023-02-28T23:36:29.017Z,5.25
2023-02-28T23:39:20.009Z,5.72
2023-02-28T23:42:06.499Z,5.75
2023-02-28T23:44:52.731Z,5.97
2023-02-28T23:47:38.552Z,5.63
2023-02-28T23:50:24.548Z,5.57
2023-02-28T23:53:11.023Z,6.13
2023-02-28T23:55:57.734Z,6.15
2023-02-28T23:58:45.799Z,5.88
